الصفحة الرئيسية
METAR-TAF:

METAR-TAF

مطار :

ماليه, جزر المالديف

دائرة عرض: 04-12N, خط طول: 073-32E, ارتفاع: 2 متر

مراقبة الطقس الحالي

تاريخ ووقت الإصدار 2ساعات و 9 دقيقة قبل الساعة 23:00UTC
ريح 6 عقدة من الجنوب/الجنوب الغربي
درجة الحرارة 28°درجة مئوية
الرطوبة 79%
ضغط 1009 hPa
الرؤية 10 كم أو أكثر
غيوم قليلة على ارتفاع 1800 قدم
غيوم قليلة على ارتفاع 1900 قدم, مزنة ركامية.
عاصفة رعدية

METAR: VRMM 232300Z 21006KT 9999 TS FEW018 FEW019CB 28/24 Q1009 RETS CB N TEMPO 6000 -TSRA

زمن: 06:09 (01:09 UTC)

توقعات

تاريخ ووقت الإصدار 2ساعات و 9 دقيقة قبل الساعة 23:00UTC
التوقعات صالحة من24 الساعة 00 UTC إلى 25 الساعة 06 UTC
ريح 9 عقدة من الجنوب الغربي
الرؤية 10 كم أو أكثر
غيوم قليلة على ارتفاع 1800 قدم, مزن ركامية عمودية.
مؤقت
من 24 الساعة 00 UTC إلى 24 الساعة 06 UTC
الرؤية: 6000 متر
غيوم متفرقة على ارتفاع 1700 قدم
غيوم قليلة على ارتفاع 1800 قدم, مزنة ركامية.
عاصفة رعدية, مطر خفيف

TAF: VRMM 232300Z 2400/2506 23009KT 9999 FEW018TCU TEMPO 2400/2406 6000 -TSRA SCT017 FEW018CB

أرصاد الطقس والتوقعات من أكثر من 4000 مطار (تقارير الطقس للمطار METAR والتنبؤ بالطقس بالمطارTAF).

المحطات المتاحة هي النقط الصفراء والحمراء على الخريطة.

حرك المؤشر فوق النقطة لمعرفة اسم المحطة.

ثم انقر لمعرفة أرصاد وتوقعات الطقس.

لتغيير الخارطة: اضغط على الأزرار الخضراء مع رمز الصليب الأسود للتكبير. على الزر الأخضر مع شرطة للتصغير، أو على الأسهم الخضراء للخرائط المجاورة.


METAR-TAF: